Aviation Digital Data Service (ADDS)

Output produced by METARs form (1025 UTC 24 January 2019)
found at http://aviationweather.gov/metar/data/
 
TAF EPDA 240800Z 2409/2418 08008KT 5000 BR NSC 
     BECMG 2410/2412 CAVOK